sensor_id;sensor_type;location;lat;lon;timestamp;temperature;humidity
24468;DHT22;12634;50.852;5.676;2023-07-29T00:02:03;21.60;99.90
24468;DHT22;12634;50.852;5.676;2023-07-29T00:04:31;21.60;99.90
24468;DHT22;12634;50.852;5.676;2023-07-29T00:06:59;21.60;99.90
24468;DHT22;12634;50.852;5.676;2023-07-29T00:09:27;21.60;99.90
24468;DHT22;12634;50.852;5.676;2023-07-29T00:11:54;21.60;99.90
24468;DHT22;12634;50.852;5.676;2023-07-29T00:14:21;21.60;99.90
24468;DHT22;12634;50.852;5.676;2023-07-29T00:16:49;21.60;99.90
24468;DHT22;12634;50.852;5.676;2023-07-29T00:19:16;21.60;99.90
24468;DHT22;12634;50.852;5.676;2023-07-29T00:21:43;21.60;99.90
24468;DHT22;12634;50.852;5.676;2023-07-29T00:24:10;21.70;99.90
24468;DHT22;12634;50.852;5.676;2023-07-29T00:26:39;21.60;99.90
24468;DHT22;12634;50.852;5.676;2023-07-29T00:29:06;21.60;99.90
24468;DHT22;12634;50.852;5.676;2023-07-29T00:31:33;21.60;99.90
24468;DHT22;12634;50.852;5.676;2023-07-29T00:34:00;21.60;99.90
24468;DHT22;12634;50.852;5.676;2023-07-29T00:36:27;21.60;99.90
24468;DHT22;12634;50.852;5.676;2023-07-29T00:38:54;21.60;99.90
24468;DHT22;12634;50.852;5.676;2023-07-29T00:41:23;21.70;99.90
24468;DHT22;12634;50.852;5.676;2023-07-29T00:43:51;21.60;99.90
24468;DHT22;12634;50.852;5.676;2023-07-29T00:46:19;21.60;99.90
24468;DHT22;12634;50.852;5.676;2023-07-29T00:48:47;21.50;99.90
24468;DHT22;12634;50.852;5.676;2023-07-29T00:51:14;21.60;99.90
24468;DHT22;12634;50.852;5.676;2023-07-29T00:53:41;21.70;99.90
24468;DHT22;12634;50.852;5.676;2023-07-29T00:56:08;21.60;99.90
24468;DHT22;12634;50.852;5.676;2023-07-29T00:58:36;21.70;99.90
24468;DHT22;12634;50.852;5.676;2023-07-29T01:01:05;21.60;99.90
24468;DHT22;12634;50.852;5.676;2023-07-29T01:03:32;21.70;99.90
24468;DHT22;12634;50.852;5.676;2023-07-29T01:06:08;21.70;99.90
24468;DHT22;12634;50.852;5.676;2023-07-29T01:08:48;21.60;99.90
24468;DHT22;12634;50.852;5.676;2023-07-29T01:11:24;21.70;99.90
24468;DHT22;12634;50.852;5.676;2023-07-29T01:13:59;21.70;99.90
24468;DHT22;12634;50.852;5.676;2023-07-29T01:16:33;21.80;99.90
24468;DHT22;12634;50.852;5.676;2023-07-29T01:19:06;21.80;99.90
24468;DHT22;12634;50.852;5.676;2023-07-29T01:21:35;21.70;99.90
24468;DHT22;12634;50.852;5.676;2023-07-29T01:24:04;21.80;99.90
24468;DHT22;12634;50.852;5.676;2023-07-29T01:26:31;21.80;99.90
24468;DHT22;12634;50.852;5.676;2023-07-29T01:28:58;21.80;99.90
24468;DHT22;12634;50.852;5.676;2023-07-29T01:31:30;21.80;99.90
24468;DHT22;12634;50.852;5.676;2023-07-29T01:34:05;21.80;99.90
24468;DHT22;12634;50.852;5.676;2023-07-29T01:36:34;21.80;99.90
24468;DHT22;12634;50.852;5.676;2023-07-29T01:39:06;21.80;99.90
24468;DHT22;12634;50.852;5.676;2023-07-29T01:41:34;21.90;99.90
24468;DHT22;12634;50.852;5.676;2023-07-29T01:44:02;21.90;99.90
24468;DHT22;12634;50.852;5.676;2023-07-29T01:46:33;21.80;99.90
24468;DHT22;12634;50.852;5.676;2023-07-29T01:49:00;21.80;99.90
24468;DHT22;12634;50.852;5.676;2023-07-29T01:51:27;21.80;99.90
24468;DHT22;12634;50.852;5.676;2023-07-29T01:53:54;21.80;99.90
24468;DHT22;12634;50.852;5.676;2023-07-29T01:56:23;21.80;99.90
24468;DHT22;12634;50.852;5.676;2023-07-29T01:58:50;21.70;99.90
24468;DHT22;12634;50.852;5.676;2023-07-29T02:01:17;21.60;99.90
24468;DHT22;12634;50.852;5.676;2023-07-29T02:03:45;21.70;99.90
24468;DHT22;12634;50.852;5.676;2023-07-29T02:06:12;21.70;99.90
24468;DHT22;12634;50.852;5.676;2023-07-29T02:08:39;21.70;99.90
24468;DHT22;12634;50.852;5.676;2023-07-29T02:11:07;21.70;99.90
24468;DHT22;12634;50.852;5.676;2023-07-29T02:13:35;21.70;99.90
24468;DHT22;12634;50.852;5.676;2023-07-29T02:16:03;21.60;99.90
24468;DHT22;12634;50.852;5.676;2023-07-29T02:18:30;21.50;99.90
24468;DHT22;12634;50.852;5.676;2023-07-29T02:20:57;21.50;99.90
24468;DHT22;12634;50.852;5.676;2023-07-29T02:23:24;21.30;99.90
24468;DHT22;12634;50.852;5.676;2023-07-29T02:25:52;21.50;99.90
24468;DHT22;12634;50.852;5.676;2023-07-29T02:28:19;21.40;99.90
24468;DHT22;12634;50.852;5.676;2023-07-29T02:31:13;21.30;99.90
24468;DHT22;12634;50.852;5.676;2023-07-29T02:33:40;21.30;99.90
24468;DHT22;12634;50.852;5.676;2023-07-29T02:36:08;21.50;99.90
24468;DHT22;12634;50.852;5.676;2023-07-29T02:38:35;21.40;99.90
24468;DHT22;12634;50.852;5.676;2023-07-29T02:41:02;21.40;99.90
24468;DHT22;12634;50.852;5.676;2023-07-29T02:43:29;21.50;99.90
24468;DHT22;12634;50.852;5.676;2023-07-29T02:45:58;21.40;99.90
24468;DHT22;12634;50.852;5.676;2023-07-29T02:48:25;21.40;99.90
24468;DHT22;12634;50.852;5.676;2023-07-29T02:50:52;21.20;99.90
24468;DHT22;12634;50.852;5.676;2023-07-29T02:53:19;21.10;99.90
24468;DHT22;12634;50.852;5.676;2023-07-29T02:55:47;21.00;99.90
24468;DHT22;12634;50.852;5.676;2023-07-29T02:58:14;21.00;99.90
24468;DHT22;12634;50.852;5.676;2023-07-29T03:00:41;20.90;99.90
24468;DHT22;12634;50.852;5.676;2023-07-29T03:03:10;20.80;99.90
24468;DHT22;12634;50.852;5.676;2023-07-29T03:05:37;20.70;99.90
24468;DHT22;12634;50.852;5.676;2023-07-29T03:08:05;20.60;99.90
24468;DHT22;12634;50.852;5.676;2023-07-29T03:10:34;20.50;99.90
24468;DHT22;12634;50.852;5.676;2023-07-29T03:13:01;20.40;99.90
24468;DHT22;12634;50.852;5.676;2023-07-29T03:15:28;20.30;99.90
24468;DHT22;12634;50.852;5.676;2023-07-29T03:17:55;20.20;99.90
24468;DHT22;12634;50.852;5.676;2023-07-29T03:20:24;20.00;99.90
24468;DHT22;12634;50.852;5.676;2023-07-29T03:22:52;20.00;99.90
24468;DHT22;12634;50.852;5.676;2023-07-29T03:25:19;19.90;99.90
24468;DHT22;12634;50.852;5.676;2023-07-29T03:27:47;19.90;99.90
24468;DHT22;12634;50.852;5.676;2023-07-29T03:30:15;19.80;99.90
24468;DHT22;12634;50.852;5.676;2023-07-29T03:32:43;19.70;99.90
24468;DHT22;12634;50.852;5.676;2023-07-29T03:35:12;19.60;99.90
24468;DHT22;12634;50.852;5.676;2023-07-29T03:37:40;19.50;99.90
24468;DHT22;12634;50.852;5.676;2023-07-29T03:40:08;19.40;99.90
24468;DHT22;12634;50.852;5.676;2023-07-29T03:42:35;19.40;99.90
24468;DHT22;12634;50.852;5.676;2023-07-29T03:45:03;19.30;99.90
24468;DHT22;12634;50.852;5.676;2023-07-29T03:47:31;19.20;99.90
24468;DHT22;12634;50.852;5.676;2023-07-29T03:49:58;19.10;99.90
24468;DHT22;12634;50.852;5.676;2023-07-29T03:52:25;19.00;99.90
24468;DHT22;12634;50.852;5.676;2023-07-29T03:54:53;19.00;99.90
24468;DHT22;12634;50.852;5.676;2023-07-29T03:57:21;18.90;99.90
24468;DHT22;12634;50.852;5.676;2023-07-29T03:59:48;18.90;99.90
24468;DHT22;12634;50.852;5.676;2023-07-29T04:02:15;18.80;99.90
24468;DHT22;12634;50.852;5.676;2023-07-29T04:04:42;18.80;99.90
24468;DHT22;12634;50.852;5.676;2023-07-29T04:07:13;18.70;99.90
24468;DHT22;12634;50.852;5.676;2023-07-29T04:09:40;18.70;99.90
24468;DHT22;12634;50.852;5.676;2023-07-29T04:12:10;18.60;99.90
24468;DHT22;12634;50.852;5.676;2023-07-29T04:14:37;18.60;99.90
24468;DHT22;12634;50.852;5.676;2023-07-29T04:17:05;18.50;99.90
24468;DHT22;12634;50.852;5.676;2023-07-29T04:19:32;18.50;99.90
24468;DHT22;12634;50.852;5.676;2023-07-29T04:21:59;18.50;99.90
24468;DHT22;12634;50.852;5.676;2023-07-29T04:24:26;18.50;99.90
24468;DHT22;12634;50.852;5.676;2023-07-29T04:26:53;18.50;99.90
24468;DHT22;12634;50.852;5.676;2023-07-29T04:29:22;18.60;99.90
24468;DHT22;12634;50.852;5.676;2023-07-29T04:31:49;18.60;99.90
24468;DHT22;12634;50.852;5.676;2023-07-29T04:34:17;18.60;99.90
24468;DHT22;12634;50.852;5.676;2023-07-29T04:36:44;18.60;99.90
24468;DHT22;12634;50.852;5.676;2023-07-29T04:39:11;18.70;99.90
24468;DHT22;12634;50.852;5.676;2023-07-29T04:41:38;18.70;99.90
24468;DHT22;12634;50.852;5.676;2023-07-29T04:44:06;18.80;99.90
24468;DHT22;12634;50.852;5.676;2023-07-29T04:46:35;18.80;99.90
24468;DHT22;12634;50.852;5.676;2023-07-29T04:49:03;18.80;99.90
24468;DHT22;12634;50.852;5.676;2023-07-29T04:51:30;18.80;99.90
24468;DHT22;12634;50.852;5.676;2023-07-29T04:53:57;18.90;99.90
24468;DHT22;12634;50.852;5.676;2023-07-29T04:56:25;18.90;99.90
24468;DHT22;12634;50.852;5.676;2023-07-29T04:58:52;18.90;99.90
24468;DHT22;12634;50.852;5.676;2023-07-29T05:01:19;19.00;99.90
24468;DHT22;12634;50.852;5.676;2023-07-29T05:03:48;19.10;99.90
24468;DHT22;12634;50.852;5.676;2023-07-29T05:06:15;19.10;99.90
24468;DHT22;12634;50.852;5.676;2023-07-29T05:08:42;19.10;99.90
24468;DHT22;12634;50.852;5.676;2023-07-29T05:11:09;19.10;99.90
24468;DHT22;12634;50.852;5.676;2023-07-29T05:13:37;19.10;99.90
24468;DHT22;12634;50.852;5.676;2023-07-29T05:16:04;19.10;99.90
24468;DHT22;12634;50.852;5.676;2023-07-29T05:18:31;19.10;99.90
24468;DHT22;12634;50.852;5.676;2023-07-29T05:21:00;19.00;99.90
24468;DHT22;12634;50.852;5.676;2023-07-29T05:23:27;19.00;99.90
24468;DHT22;12634;50.852;5.676;2023-07-29T05:25:54;18.90;99.90
24468;DHT22;12634;50.852;5.676;2023-07-29T05:28:21;18.90;99.90
24468;DHT22;12634;50.852;5.676;2023-07-29T05:30:48;18.90;99.90
24468;DHT22;12634;50.852;5.676;2023-07-29T05:33:16;18.90;99.90
24468;DHT22;12634;50.852;5.676;2023-07-29T05:35:43;18.90;99.90
24468;DHT22;12634;50.852;5.676;2023-07-29T05:38:14;18.80;99.90
24468;DHT22;12634;50.852;5.676;2023-07-29T05:40:41;18.80;99.90
24468;DHT22;12634;50.852;5.676;2023-07-29T05:43:08;18.90;99.90
24468;DHT22;12634;50.852;5.676;2023-07-29T05:45:35;18.90;99.90
24468;DHT22;12634;50.852;5.676;2023-07-29T05:48:02;18.80;99.90
24468;DHT22;12634;50.852;5.676;2023-07-29T05:50:30;18.70;99.90
24468;DHT22;12634;50.852;5.676;2023-07-29T05:52:57;18.70;99.90
24468;DHT22;12634;50.852;5.676;2023-07-29T05:55:25;18.70;99.90
24468;DHT22;12634;50.852;5.676;2023-07-29T05:57:53;18.70;99.90
24468;DHT22;12634;50.852;5.676;2023-07-29T06:00:20;18.70;99.90
24468;DHT22;12634;50.852;5.676;2023-07-29T06:02:47;18.70;99.90
24468;DHT22;12634;50.852;5.676;2023-07-29T06:05:15;18.60;99.90
24468;DHT22;12634;50.852;5.676;2023-07-29T06:07:42;18.70;99.90
24468;DHT22;12634;50.852;5.676;2023-07-29T06:10:12;18.50;99.90
24468;DHT22;12634;50.852;5.676;2023-07-29T06:12:40;18.60;99.90
24468;DHT22;12634;50.852;5.676;2023-07-29T06:15:08;18.80;99.90
24468;DHT22;12634;50.852;5.676;2023-07-29T06:17:36;18.80;99.90
24468;DHT22;12634;50.852;5.676;2023-07-29T06:20:03;18.80;99.90
24468;DHT22;12634;50.852;5.676;2023-07-29T06:22:31;18.70;99.90
24468;DHT22;12634;50.852;5.676;2023-07-29T06:24:58;18.60;99.90
24468;DHT22;12634;50.852;5.676;2023-07-29T06:27:25;18.70;99.90
24468;DHT22;12634;50.852;5.676;2023-07-29T06:29:54;18.50;99.90
24468;DHT22;12634;50.852;5.676;2023-07-29T06:32:21;18.60;99.90
24468;DHT22;12634;50.852;5.676;2023-07-29T06:34:48;18.70;99.90
24468;DHT22;12634;50.852;5.676;2023-07-29T06:37:17;18.70;99.90
24468;DHT22;12634;50.852;5.676;2023-07-29T06:39:45;18.70;99.90
24468;DHT22;12634;50.852;5.676;2023-07-29T06:42:12;18.90;99.90
24468;DHT22;12634;50.852;5.676;2023-07-29T06:44:40;19.70;99.90
24468;DHT22;12634;50.852;5.676;2023-07-29T06:47:09;20.10;99.90
24468;DHT22;12634;50.852;5.676;2023-07-29T06:49:36;20.90;99.90
24468;DHT22;12634;50.852;5.676;2023-07-29T06:52:04;20.60;99.90
24468;DHT22;12634;50.852;5.676;2023-07-29T06:54:31;21.10;99.90
24468;DHT22;12634;50.852;5.676;2023-07-29T06:56:58;21.00;99.90
24468;DHT22;12634;50.852;5.676;2023-07-29T06:59:25;20.50;99.90
24468;DHT22;12634;50.852;5.676;2023-07-29T07:01:52;20.30;99.90
24468;DHT22;12634;50.852;5.676;2023-07-29T07:04:21;20.10;99.90
24468;DHT22;12634;50.852;5.676;2023-07-29T07:06:48;19.90;99.90
24468;DHT22;12634;50.852;5.676;2023-07-29T07:09:16;19.90;99.90
24468;DHT22;12634;50.852;5.676;2023-07-29T07:11:43;20.00;99.90
24468;DHT22;12634;50.852;5.676;2023-07-29T07:14:12;20.00;99.90
24468;DHT22;12634;50.852;5.676;2023-07-29T07:16:39;19.90;99.90
24468;DHT22;12634;50.852;5.676;2023-07-29T07:19:06;20.00;99.90
24468;DHT22;12634;50.852;5.676;2023-07-29T07:21:35;20.10;99.90
24468;DHT22;12634;50.852;5.676;2023-07-29T07:24:02;20.00;99.90
24468;DHT22;12634;50.852;5.676;2023-07-29T07:26:29;20.10;99.90
24468;DHT22;12634;50.852;5.676;2023-07-29T07:28:56;20.20;99.90
24468;DHT22;12634;50.852;5.676;2023-07-29T07:31:24;20.40;99.90
24468;DHT22;12634;50.852;5.676;2023-07-29T07:33:51;20.50;99.90
24468;DHT22;12634;50.852;5.676;2023-07-29T07:36:18;20.30;99.90
24468;DHT22;12634;50.852;5.676;2023-07-29T07:38:47;20.60;99.90
24468;DHT22;12634;50.852;5.676;2023-07-29T07:41:14;20.40;99.90
24468;DHT22;12634;50.852;5.676;2023-07-29T07:43:41;20.50;99.90
24468;DHT22;12634;50.852;5.676;2023-07-29T07:46:09;20.50;99.90
24468;DHT22;12634;50.852;5.676;2023-07-29T07:48:37;20.40;99.90
24468;DHT22;12634;50.852;5.676;2023-07-29T07:51:10;20.20;99.90
24468;DHT22;12634;50.852;5.676;2023-07-29T07:53:38;20.10;99.90
24468;DHT22;12634;50.852;5.676;2023-07-29T07:56:07;20.20;99.90
24468;DHT22;12634;50.852;5.676;2023-07-29T07:58:34;20.20;99.90
24468;DHT22;12634;50.852;5.676;2023-07-29T08:01:02;20.30;99.90
24468;DHT22;12634;50.852;5.676;2023-07-29T08:03:30;20.30;99.90
24468;DHT22;12634;50.852;5.676;2023-07-29T08:05:57;20.10;99.90
24468;DHT22;12634;50.852;5.676;2023-07-29T08:08:25;20.00;99.90
24468;DHT22;12634;50.852;5.676;2023-07-29T08:10:52;19.80;99.90
24468;DHT22;12634;50.852;5.676;2023-07-29T08:13:22;19.60;99.90
24468;DHT22;12634;50.852;5.676;2023-07-29T08:15:50;19.60;99.90
24468;DHT22;12634;50.852;5.676;2023-07-29T08:18:18;19.50;99.90
24468;DHT22;12634;50.852;5.676;2023-07-29T08:20:52;19.40;99.90
24468;DHT22;12634;50.852;5.676;2023-07-29T08:23:21;19.40;99.90
24468;DHT22;12634;50.852;5.676;2023-07-29T08:25:52;19.40;99.90
24468;DHT22;12634;50.852;5.676;2023-07-29T08:28:21;19.40;99.90
24468;DHT22;12634;50.852;5.676;2023-07-29T08:30:48;19.50;99.90
24468;DHT22;12634;50.852;5.676;2023-07-29T08:33:16;19.60;99.90
24468;DHT22;12634;50.852;5.676;2023-07-29T08:35:43;19.90;99.90
24468;DHT22;12634;50.852;5.676;2023-07-29T08:38:10;20.30;99.90
24468;DHT22;12634;50.852;5.676;2023-07-29T08:40:40;21.00;99.90
24468;DHT22;12634;50.852;5.676;2023-07-29T08:43:09;21.70;99.90
24468;DHT22;12634;50.852;5.676;2023-07-29T08:45:40;21.50;99.90
24468;DHT22;12634;50.852;5.676;2023-07-29T08:48:10;21.40;99.90
24468;DHT22;12634;50.852;5.676;2023-07-29T08:50:37;21.10;99.90
24468;DHT22;12634;50.852;5.676;2023-07-29T08:53:05;21.10;99.90
24468;DHT22;12634;50.852;5.676;2023-07-29T08:55:32;21.60;99.90
24468;DHT22;12634;50.852;5.676;2023-07-29T08:58:00;21.70;99.90
24468;DHT22;12634;50.852;5.676;2023-07-29T09:00:28;21.50;99.90
24468;DHT22;12634;50.852;5.676;2023-07-29T09:02:56;21.10;99.90
24468;DHT22;12634;50.852;5.676;2023-07-29T09:05:28;21.80;99.90
24468;DHT22;12634;50.852;5.676;2023-07-29T09:07:55;21.70;99.90
24468;DHT22;12634;50.852;5.676;2023-07-29T09:10:24;21.30;99.90
24468;DHT22;12634;50.852;5.676;2023-07-29T09:12:53;21.20;99.90
24468;DHT22;12634;50.852;5.676;2023-07-29T09:15:27;21.30;99.90
24468;DHT22;12634;50.852;5.676;2023-07-29T09:17:57;21.30;99.90
24468;DHT22;12634;50.852;5.676;2023-07-29T09:20:25;21.40;99.90
24468;DHT22;12634;50.852;5.676;2023-07-29T09:22:54;21.20;99.90
24468;DHT22;12634;50.852;5.676;2023-07-29T09:25:25;22.00;99.90
24468;DHT22;12634;50.852;5.676;2023-07-29T09:27:52;21.90;99.90
24468;DHT22;12634;50.852;5.676;2023-07-29T09:30:20;21.70;99.90
24468;DHT22;12634;50.852;5.676;2023-07-29T09:32:52;21.90;99.90
24468;DHT22;12634;50.852;5.676;2023-07-29T09:35:21;21.60;99.90
24468;DHT22;12634;50.852;5.676;2023-07-29T09:37:48;22.00;99.90
24468;DHT22;12634;50.852;5.676;2023-07-29T09:40:15;21.70;99.90
24468;DHT22;12634;50.852;5.676;2023-07-29T09:42:48;22.40;99.90
24468;DHT22;12634;50.852;5.676;2023-07-29T09:45:20;22.70;99.90
24468;DHT22;12634;50.852;5.676;2023-07-29T09:47:48;22.40;99.90
24468;DHT22;12634;50.852;5.676;2023-07-29T09:50:15;22.40;99.90
24468;DHT22;12634;50.852;5.676;2023-07-29T09:52:44;22.90;99.90
24468;DHT22;12634;50.852;5.676;2023-07-29T09:55:12;24.00;99.90
24468;DHT22;12634;50.852;5.676;2023-07-29T09:57:40;24.20;99.90
24468;DHT22;12634;50.852;5.676;2023-07-29T10:00:10;23.70;99.90
24468;DHT22;12634;50.852;5.676;2023-07-29T10:02:39;22.90;99.90
24468;DHT22;12634;50.852;5.676;2023-07-29T10:05:07;22.40;99.90
24468;DHT22;12634;50.852;5.676;2023-07-29T10:07:36;21.80;99.90
24468;DHT22;12634;50.852;5.676;2023-07-29T10:10:07;21.60;99.90
24468;DHT22;12634;50.852;5.676;2023-07-29T10:12:35;21.40;99.90
24468;DHT22;12634;50.852;5.676;2023-07-29T10:15:04;21.20;99.90
24468;DHT22;12634;50.852;5.676;2023-07-29T10:17:34;21.10;99.90
24468;DHT22;12634;50.852;5.676;2023-07-29T10:20:02;21.40;99.90
24468;DHT22;12634;50.852;5.676;2023-07-29T10:22:35;21.50;99.90
24468;DHT22;12634;50.852;5.676;2023-07-29T10:25:07;21.80;99.90
24468;DHT22;12634;50.852;5.676;2023-07-29T10:27:42;22.30;99.90
24468;DHT22;12634;50.852;5.676;2023-07-29T10:30:11;22.20;99.90
24468;DHT22;12634;50.852;5.676;2023-07-29T10:32:42;22.10;99.90
24468;DHT22;12634;50.852;5.676;2023-07-29T10:35:11;22.20;99.90
24468;DHT22;12634;50.852;5.676;2023-07-29T10:37:38;22.20;99.90
24468;DHT22;12634;50.852;5.676;2023-07-29T10:40:09;23.10;99.90
24468;DHT22;12634;50.852;5.676;2023-07-29T10:42:37;24.20;99.90
24468;DHT22;12634;50.852;5.676;2023-07-29T10:45:21;24.70;99.90
24468;DHT22;12634;50.852;5.676;2023-07-29T10:47:48;24.30;99.90
24468;DHT22;12634;50.852;5.676;2023-07-29T10:50:20;23.90;99.90
24468;DHT22;12634;50.852;5.676;2023-07-29T10:52:50;23.30;99.90
24468;DHT22;12634;50.852;5.676;2023-07-29T10:55:31;23.60;99.90
24468;DHT22;12634;50.852;5.676;2023-07-29T10:58:07;23.30;99.90
24468;DHT22;12634;50.852;5.676;2023-07-29T11:00:35;23.10;99.90
24468;DHT22;12634;50.852;5.676;2023-07-29T11:03:05;24.00;99.90
24468;DHT22;12634;50.852;5.676;2023-07-29T11:05:47;24.50;99.90
24468;DHT22;12634;50.852;5.676;2023-07-29T11:08:23;23.60;99.90
24468;DHT22;12634;50.852;5.676;2023-07-29T11:11:05;23.30;99.90
24468;DHT22;12634;50.852;5.676;2023-07-29T11:13:34;23.80;99.90
24468;DHT22;12634;50.852;5.676;2023-07-29T11:16:02;24.80;99.90
24468;DHT22;12634;50.852;5.676;2023-07-29T11:18:30;24.50;99.90
24468;DHT22;12634;50.852;5.676;2023-07-29T11:20:59;25.00;99.90
24468;DHT22;12634;50.852;5.676;2023-07-29T11:23:29;24.90;99.90
24468;DHT22;12634;50.852;5.676;2023-07-29T11:25:57;24.10;99.90
24468;DHT22;12634;50.852;5.676;2023-07-29T11:28:26;23.40;99.90
24468;DHT22;12634;50.852;5.676;2023-07-29T11:30:54;23.50;99.90
24468;DHT22;12634;50.852;5.676;2023-07-29T11:33:23;23.60;99.90
24468;DHT22;12634;50.852;5.676;2023-07-29T11:35:51;24.40;99.90
24468;DHT22;12634;50.852;5.676;2023-07-29T11:38:19;24.10;99.90
24468;DHT22;12634;50.852;5.676;2023-07-29T11:40:58;23.80;99.90
24468;DHT22;12634;50.852;5.676;2023-07-29T11:43:27;24.00;99.90
24468;DHT22;12634;50.852;5.676;2023-07-29T11:45:54;23.60;99.90
24468;DHT22;12634;50.852;5.676;2023-07-29T11:48:28;23.30;99.90
24468;DHT22;12634;50.852;5.676;2023-07-29T11:50:55;23.10;99.90
24468;DHT22;12634;50.852;5.676;2023-07-29T11:53:26;22.90;99.90
24468;DHT22;12634;50.852;5.676;2023-07-29T11:55:54;22.70;99.90
24468;DHT22;12634;50.852;5.676;2023-07-29T11:58:21;22.40;99.90
24468;DHT22;12634;50.852;5.676;2023-07-29T12:00:51;22.10;99.90
24468;DHT22;12634;50.852;5.676;2023-07-29T12:03:18;21.90;99.90
24468;DHT22;12634;50.852;5.676;2023-07-29T12:05:46;21.80;99.90
24468;DHT22;12634;50.852;5.676;2023-07-29T12:08:13;21.60;99.90
24468;DHT22;12634;50.852;5.676;2023-07-29T12:10:41;21.60;99.90
24468;DHT22;12634;50.852;5.676;2023-07-29T12:13:08;21.60;99.90
24468;DHT22;12634;50.852;5.676;2023-07-29T12:15:38;21.60;99.90
24468;DHT22;12634;50.852;5.676;2023-07-29T12:18:08;21.70;99.90
24468;DHT22;12634;50.852;5.676;2023-07-29T12:20:36;21.60;99.90
24468;DHT22;12634;50.852;5.676;2023-07-29T12:23:03;21.50;99.90
24468;DHT22;12634;50.852;5.676;2023-07-29T12:25:33;21.60;99.90
24468;DHT22;12634;50.852;5.676;2023-07-29T12:28:05;21.50;99.90
24468;DHT22;12634;50.852;5.676;2023-07-29T12:30:32;21.40;99.90
24468;DHT22;12634;50.852;5.676;2023-07-29T12:32:59;21.30;99.90
24468;DHT22;12634;50.852;5.676;2023-07-29T12:35:35;21.10;99.90
24468;DHT22;12634;50.852;5.676;2023-07-29T12:38:03;20.90;99.90
24468;DHT22;12634;50.852;5.676;2023-07-29T12:40:30;20.50;99.90
24468;DHT22;12634;50.852;5.676;2023-07-29T12:42:57;20.10;99.90
24468;DHT22;12634;50.852;5.676;2023-07-29T12:45:24;20.00;99.90
24468;DHT22;12634;50.852;5.676;2023-07-29T12:47:55;19.90;99.90
24468;DHT22;12634;50.852;5.676;2023-07-29T12:50:22;19.80;99.90
24468;DHT22;12634;50.852;5.676;2023-07-29T12:52:51;19.90;99.90
24468;DHT22;12634;50.852;5.676;2023-07-29T12:55:18;20.10;99.90
24468;DHT22;12634;50.852;5.676;2023-07-29T12:57:45;20.80;99.90
24468;DHT22;12634;50.852;5.676;2023-07-29T13:00:13;21.70;99.90
24468;DHT22;12634;50.852;5.676;2023-07-29T13:02:40;22.70;99.90
24468;DHT22;12634;50.852;5.676;2023-07-29T13:05:10;22.70;99.90
24468;DHT22;12634;50.852;5.676;2023-07-29T13:07:37;22.50;99.90
24468;DHT22;12634;50.852;5.676;2023-07-29T13:10:07;22.50;99.90
24468;DHT22;12634;50.852;5.676;2023-07-29T13:12:35;22.30;99.90
24468;DHT22;12634;50.852;5.676;2023-07-29T13:15:02;21.80;99.90
24468;DHT22;12634;50.852;5.676;2023-07-29T13:17:30;21.30;99.90
24468;DHT22;12634;50.852;5.676;2023-07-29T13:19:57;20.40;99.90
24468;DHT22;12634;50.852;5.676;2023-07-29T13:22:24;20.20;99.90
24468;DHT22;12634;50.852;5.676;2023-07-29T13:24:51;20.10;99.90
24468;DHT22;12634;50.852;5.676;2023-07-29T13:27:20;19.90;99.90
24468;DHT22;12634;50.852;5.676;2023-07-29T13:29:48;20.10;99.90
24468;DHT22;12634;50.852;5.676;2023-07-29T13:32:15;20.50;99.90
24468;DHT22;12634;50.852;5.676;2023-07-29T13:34:43;21.20;99.90
24468;DHT22;12634;50.852;5.676;2023-07-29T13:37:10;21.40;99.90
24468;DHT22;12634;50.852;5.676;2023-07-29T13:39:37;21.50;99.90
24468;DHT22;12634;50.852;5.676;2023-07-29T13:42:04;21.40;99.90
24468;DHT22;12634;50.852;5.676;2023-07-29T13:44:33;21.50;99.90
24468;DHT22;12634;50.852;5.676;2023-07-29T13:47:00;21.30;99.90
24468;DHT22;12634;50.852;5.676;2023-07-29T13:49:28;21.60;99.90
24468;DHT22;12634;50.852;5.676;2023-07-29T13:51:55;21.80;99.90
24468;DHT22;12634;50.852;5.676;2023-07-29T13:54:22;21.40;99.90
24468;DHT22;12634;50.852;5.676;2023-07-29T13:56:49;21.70;99.90
24468;DHT22;12634;50.852;5.676;2023-07-29T13:59:16;21.80;99.90
24468;DHT22;12634;50.852;5.676;2023-07-29T14:01:45;21.70;99.90
24468;DHT22;12634;50.852;5.676;2023-07-29T14:04:12;21.60;99.90
24468;DHT22;12634;50.852;5.676;2023-07-29T14:06:39;21.70;99.90
24468;DHT22;12634;50.852;5.676;2023-07-29T14:09:07;22.10;99.90
24468;DHT22;12634;50.852;5.676;2023-07-29T14:11:34;22.60;99.90
24468;DHT22;12634;50.852;5.676;2023-07-29T14:14:01;22.50;99.90
24468;DHT22;12634;50.852;5.676;2023-07-29T14:16:28;23.40;99.90
24468;DHT22;12634;50.852;5.676;2023-07-29T14:18:57;24.10;99.90
24468;DHT22;12634;50.852;5.676;2023-07-29T14:21:24;24.10;99.90
24468;DHT22;12634;50.852;5.676;2023-07-29T14:23:51;24.30;99.90
24468;DHT22;12634;50.852;5.676;2023-07-29T14:26:18;24.40;99.90
24468;DHT22;12634;50.852;5.676;2023-07-29T14:28:46;24.10;99.90
24468;DHT22;12634;50.852;5.676;2023-07-29T14:31:13;23.90;99.90
24468;DHT22;12634;50.852;5.676;2023-07-29T14:33:42;24.10;99.90
24468;DHT22;12634;50.852;5.676;2023-07-29T14:36:11;23.90;99.90
24468;DHT22;12634;50.852;5.676;2023-07-29T14:38:38;23.80;99.90
24468;DHT22;12634;50.852;5.676;2023-07-29T14:41:05;23.80;99.90
24468;DHT22;12634;50.852;5.676;2023-07-29T14:43:33;23.80;99.90
24468;DHT22;12634;50.852;5.676;2023-07-29T14:46:00;23.40;99.90
24468;DHT22;12634;50.852;5.676;2023-07-29T14:48:27;23.30;99.90
24468;DHT22;12634;50.852;5.676;2023-07-29T14:50:55;23.10;99.90
24468;DHT22;12634;50.852;5.676;2023-07-29T14:53:23;23.30;99.90
24468;DHT22;12634;50.852;5.676;2023-07-29T14:55:51;23.70;99.90
24468;DHT22;12634;50.852;5.676;2023-07-29T14:58:18;24.50;99.90
24468;DHT22;12634;50.852;5.676;2023-07-29T15:00:45;25.10;99.90
24468;DHT22;12634;50.852;5.676;2023-07-29T15:03:12;25.70;99.90
24468;DHT22;12634;50.852;5.676;2023-07-29T15:05:40;26.10;99.90
24468;DHT22;12634;50.852;5.676;2023-07-29T15:08:07;25.40;99.90
24468;DHT22;12634;50.852;5.676;2023-07-29T15:10:36;24.90;99.90
24468;DHT22;12634;50.852;5.676;2023-07-29T15:13:03;23.90;99.90
24468;DHT22;12634;50.852;5.676;2023-07-29T15:15:30;23.50;99.90
24468;DHT22;12634;50.852;5.676;2023-07-29T15:17:57;23.30;99.90
24468;DHT22;12634;50.852;5.676;2023-07-29T15:20:24;23.20;99.90
24468;DHT22;12634;50.852;5.676;2023-07-29T15:22:51;23.00;99.90
24468;DHT22;12634;50.852;5.676;2023-07-29T15:25:18;22.80;99.90
24468;DHT22;12634;50.852;5.676;2023-07-29T15:27:47;22.80;99.90
24468;DHT22;12634;50.852;5.676;2023-07-29T15:30:14;23.10;99.90
24468;DHT22;12634;50.852;5.676;2023-07-29T15:32:41;24.40;99.90
24468;DHT22;12634;50.852;5.676;2023-07-29T15:35:09;25.90;99.90
24468;DHT22;12634;50.852;5.676;2023-07-29T15:37:36;25.80;99.90